Time;durP1;ratioP1;P1;durP2;ratioP2;P2;SDS_P1;SDS_P2;PMS_P1;PMS_P2;Temp;Humidity;BMP_temperature;BMP_pressure;BME280_temperature;BME280_humidity;BME280_pressure;Samples;Min_cycle;Max_cycle;Signal;HPM_P1;HPM_P2
2024/01/25 00:00:31;;;;;;;37.92;5.85;;;;;;;4.13;100.00;100054.56;5074605;28;20029;-71
2024/01/25 00:02:57;;;;;;;38.97;5.63;;;;;;;4.05;100.00;100051.13;5057922;28;20063;-70
2024/01/25 00:05:22;;;;;;;43.05;5.40;;;;;;;4.02;100.00;100054.97;5075790;28;20483;-71
2024/01/25 00:07:48;;;;;;;39.78;5.18;;;;;;;4.00;100.00;100065.75;5075938;28;20034;-70
2024/01/25 00:10:16;;;;;;;33.03;4.60;;;;;;;3.98;100.00;100073.13;5076267;28;20395;-70
2024/01/25 00:12:42;;;;;;;41.03;5.28;;;;;;;3.91;100.00;100063.34;5075150;28;20028;-70
2024/01/25 00:15:08;;;;;;;31.88;5.03;;;;;;;3.99;100.00;100084.59;5075455;28;20117;-70
2024/01/25 00:17:34;;;;;;;46.00;5.10;;;;;;;3.99;100.00;100089.91;5073703;28;20067;-70
2024/01/25 00:19:59;;;;;;;34.22;4.57;;;;;;;3.98;100.00;100098.91;5058455;28;20116;-71
2024/01/25 00:22:25;;;;;;;44.28;5.35;;;;;;;3.97;100.00;100095.44;5074439;28;20029;-70
2024/01/25 00:24:50;;;;;;;34.30;4.30;;;;;;;4.03;100.00;100101.88;5073848;28;20446;-69
2024/01/25 00:27:15;;;;;;;45.22;4.90;;;;;;;4.08;100.00;100109.34;5077347;28;20032;-70
2024/01/25 00:29:41;;;;;;;38.97;5.03;;;;;;;4.13;100.00;100115.78;5058659;28;20391;-70
2024/01/25 00:32:06;;;;;;;37.85;5.22;;;;;;;4.11;100.00;100109.81;5076126;28;20032;-70
2024/01/25 00:34:33;;;;;;;48.25;5.30;;;;;;;4.15;100.00;100124.44;5059533;28;20025;-69
2024/01/25 00:36:59;;;;;;;37.35;5.18;;;;;;;4.22;100.00;100133.38;5077525;28;20048;-70
2024/01/25 00:39:24;;;;;;;32.95;5.03;;;;;;;4.27;100.00;100135.53;5074390;28;20032;-70
2024/01/25 00:41:51;;;;;;;38.47;4.97;;;;;;;4.06;100.00;100098.84;5064532;28;20054;-71
2024/01/25 00:44:17;;;;;;;40.55;5.47;;;;;;;4.23;100.00;100156.34;5081884;28;20032;-70
2024/01/25 00:46:43;;;;;;;35.35;5.30;;;;;;;4.16;100.00;100154.56;5081706;28;20480;-70
2024/01/25 00:49:08;;;;;;;43.25;5.70;;;;;;;4.05;100.00;100157.63;5060797;28;20043;-71
2024/01/25 00:51:36;;;;;;;42.42;5.68;;;;;;;3.84;100.00;100147.53;5075327;28;20463;-71
2024/01/25 00:54:02;;;;;;;51.35;6.25;;;;;;;3.85;100.00;100168.66;5057384;28;20058;-70
2024/01/25 00:56:28;;;;;;;41.63;6.05;;;;;;;3.82;100.00;100174.31;5074045;28;20035;-70
2024/01/25 00:58:53;;;;;;;46.92;6.20;;;;;;;3.85;100.00;100197.09;5075909;28;20036;-71
2024/01/25 01:01:22;;;;;;;36.60;5.43;;;;;;;3.87;100.00;100200.41;5074755;28;20020;-71
2024/01/25 01:03:52;;;;;;;36.38;5.32;;;;;;;3.82;100.00;100208.09;5057723;28;20024;-71
2024/01/25 01:06:19;;;;;;;33.58;5.00;;;;;;;3.76;100.00;100212.25;5074682;28;20024;-70
2024/01/25 01:08:45;;;;;;;31.23;4.88;;;;;;;3.71;100.00;100226.06;5073626;28;20380;-71
2024/01/25 01:11:12;;;;;;;30.65;4.55;;;;;;;3.60;100.00;100215.75;5074671;28;20029;-71
2024/01/25 01:13:37;;;;;;;34.47;4.90;;;;;;;3.63;100.00;100228.72;5073826;28;20051;-70
2024/01/25 01:16:03;;;;;;;35.17;5.10;;;;;;;3.50;100.00;100215.94;5072459;28;20424;-70
2024/01/25 01:18:28;;;;;;;21.17;3.67;;;;;;;3.58;100.00;100243.56;5055308;28;20028;-70
2024/01/25 01:20:54;;;;;;;27.13;3.63;;;;;;;3.21;100.00;100189.03;5072993;28;20036;-70
2024/01/25 01:23:19;;;;;;;25.73;3.80;;;;;;;3.49;100.00;100248.03;5055678;28;20074;-71
2024/01/25 01:25:44;;;;;;;24.98;3.90;;;;;;;3.47;100.00;100250.03;5058720;28;20032;-70
2024/01/25 01:28:11;;;;;;;20.48;3.20;;;;;;;3.41;100.00;100245.34;5075495;28;20035;-71
2024/01/25 01:30:41;;;;;;;21.45;3.05;;;;;;;3.25;100.00;100236.41;5076512;28;20028;-71
2024/01/25 01:33:06;;;;;;;18.48;2.63;;;;;;;3.39;100.00;100263.34;5057888;28;20144;-70
2024/01/25 01:35:32;;;;;;;18.55;2.85;;;;;;;3.42;100.00;100273.63;5073801;28;20064;-71
2024/01/25 01:37:57;;;;;;;14.73;2.67;;;;;;;3.28;100.00;100249.38;5067094;28;20146;-71
2024/01/25 01:40:22;;;;;;;15.73;2.30;;;;;;;3.45;100.00;100289.28;5082334;28;20036;-70
2024/01/25 01:42:48;;;;;;;17.98;2.55;;;;;;;3.52;100.00;100284.94;5058151;28;20085;-70
2024/01/25 01:45:13;;;;;;;16.77;2.38;;;;;;;3.61;100.00;100305.22;5075130;28;20043;-71
2024/01/25 01:47:40;;;;;;;15.00;1.80;;;;;;;3.57;100.00;100309.19;5073006;28;20040;-70
2024/01/25 01:50:06;;;;;;;15.02;2.75;;;;;;;3.62;100.00;100314.03;5074581;28;20090;-70
2024/01/25 01:52:32;;;;;;;20.15;2.33;;;;;;;3.69;100.00;100329.16;5074130;28;20026;-70
2024/01/25 01:54:58;;;;;;;21.27;2.47;;;;;;;3.72;100.00;100344.81;5055691;28;20082;-70
2024/01/25 01:57:24;;;;;;;10.52;2.00;;;;;;;3.71;100.00;100345.81;5072916;28;20439;-70
2024/01/25 01:59:50;;;;;;;15.00;1.88;;;;;;;3.60;100.00;100340.78;5073526;28;20028;-70
2024/01/25 02:02:15;;;;;;;13.60;2.38;;;;;;;3.47;100.00;100327.97;5074213;28;20035;-70
2024/01/25 02:04:43;;;;;;;12.15;2.03;;;;;;;3.56;100.00;100344.78;5074162;28;20028;-70
2024/01/25 02:07:09;;;;;;;11.50;2.40;;;;;;;3.67;100.00;100364.91;5074396;28;20115;-70
2024/01/25 02:09:34;;;;;;;10.55;1.90;;;;;;;3.68;100.00;100390.53;5056366;28;20051;-70
2024/01/25 02:12:03;;;;;;;18.25;2.58;;;;;;;3.66;100.00;100403.16;5072480;28;20024;-71
2024/01/25 02:14:30;;;;;;;21.73;2.88;;;;;;;3.61;100.00;100405.47;5072984;28;20028;-70
2024/01/25 02:16:56;;;;;;;17.17;3.33;;;;;;;3.45;100.00;100395.66;5073767;28;20044;-70
2024/01/25 02:19:21;;;;;;;19.63;3.08;;;;;;;3.46;100.00;100411.44;5075181;28;20051;-70
2024/01/25 02:21:53;;;;;;;13.07;2.50;;;;;;;3.22;100.00;100409.56;5057782;28;20024;-71
2024/01/25 02:24:19;;;;;;;15.45;2.70;;;;;;;3.26;100.00;100426.84;5072737;28;20024;-70
2024/01/25 02:26:45;;;;;;;25.77;3.88;;;;;;;3.23;100.00;100435.13;5074134;28;20508;-70
2024/01/25 02:29:11;;;;;;;17.17;3.22;;;;;;;2.69;100.00;100365.47;5073041;28;20107;-72
2024/01/25 02:31:36;;;;;;;24.50;3.40;;;;;;;3.12;100.00;100442.59;5056121;28;20079;-71
2024/01/25 02:34:01;;;;;;;18.30;3.42;;;;;;;3.04;100.00;100449.50;5081761;28;20066;-70
2024/01/25 02:36:27;;;;;;;19.67;3.78;;;;;;;3.03;100.00;100449.69;5079612;28;20064;-71
2024/01/25 02:38:52;;;;;;;19.60;3.28;;;;;;;3.03;100.00;100465.63;5073772;28;20032;-70
2024/01/25 02:41:17;;;;;;;29.33;4.82;;;;;;;2.88;100.00;100470.72;5056626;28;20028;-70
2024/01/25 02:43:43;;;;;;;32.15;5.57;;;;;;;2.72;100.00;100479.41;5073011;28;20024;-71
2024/01/25 02:46:08;;;;;;;40.78;5.78;;;;;;;2.69;100.00;100478.88;5072186;28;20052;-70
2024/01/25 02:48:34;;;;;;;27.33;5.20;;;;;;;2.75;100.00;100484.41;5071267;28;20031;-70
2024/01/25 02:51:00;;;;;;;36.70;5.80;;;;;;;2.78;100.00;100494.72;5073751;28;20033;-70
2024/01/25 02:53:25;;;;;;;48.15;6.85;;;;;;;2.77;100.00;100492.22;5072369;28;20510;-71
2024/01/25 02:55:50;;;;;;;46.80;7.95;;;;;;;2.71;100.00;100522.06;5072663;28;20391;-70
2024/01/25 02:58:16;;;;;;;41.42;6.90;;;;;;;2.66;100.00;100533.16;5072468;28;20036;-70
2024/01/25 03:00:42;;;;;;;45.08;7.95;;;;;;;2.62;100.00;100547.75;5072515;28;20025;-70
2024/01/25 03:03:07;;;;;;;57.22;8.45;;;;;;;2.54;100.00;100571.56;5072524;28;20115;-70
2024/01/25 03:05:34;;;;;;;51.15;9.02;;;;;;;2.55;100.00;100565.25;5073441;28;20032;-70
2024/01/25 03:08:00;;;;;;;51.05;9.07;;;;;;;2.56;100.00;100570.44;5076802;28;20399;-70
2024/01/25 03:10:25;;;;;;;59.67;8.55;;;;;;;2.52;100.00;100568.25;5078081;28;20035;-71
2024/01/25 03:12:50;;;;;;;48.70;8.40;;;;;;;2.49;100.00;100579.16;5077485;28;20033;-70
2024/01/25 03:15:16;;;;;;;47.95;9.10;;;;;;;2.44;100.00;100587.56;5058659;28;20422;-71
2024/01/25 03:17:43;;;;;;;39.60;6.78;;;;;;;2.47;100.00;100594.41;5060442;28;20035;-70
2024/01/25 03:20:11;;;;;;;45.65;7.88;;;;;;;2.46;100.00;100608.69;5059594;28;20024;-70
2024/01/25 03:22:39;;;;;;;34.13;7.05;;;;;;;2.43;100.00;100622.25;5076301;28;20032;-70
2024/01/25 03:25:04;;;;;;;39.30;6.53;;;;;;;2.42;100.00;100625.88;5077377;28;20115;-69
2024/01/25 03:27:30;;;;;;;34.92;6.00;;;;;;;2.35;100.00;100639.78;5088343;28;20032;-70
2024/01/25 03:29:55;;;;;;;37.58;6.57;;;;;;;2.26;100.00;100651.28;5092260;28;20082;-70
2024/01/25 03:32:20;;;;;;;42.42;6.82;;;;;;;2.26;100.00;100653.94;5060904;28;20113;-70
2024/01/25 03:34:46;;;;;;;31.35;5.75;;;;;;;2.06;100.00;100620.53;5077534;28;20193;-70
2024/01/25 03:37:11;;;;;;;36.75;6.03;;;;;;;2.29;100.00;100674.06;5074853;28;20053;-70
2024/01/25 03:39:38;;;;;;;35.60;5.72;;;;;;;2.27;100.00;100674.19;5074487;28;20029;-70
2024/01/25 03:42:03;;;;;;;40.97;5.95;;;;;;;2.26;100.00;100699.09;5076490;28;20032;-70
2024/01/25 03:44:29;;;;;;;41.50;5.25;;;;;;;2.26;100.00;100706.22;5076087;28;20428;-69
2024/01/25 03:46:56;;;;;;;35.92;6.13;;;;;;;2.11;100.00;100687.28;5075031;28;20052;-70
2024/01/25 03:49:22;;;;;;;40.28;6.65;;;;;;;2.21;100.00;100714.59;5058870;28;20449;-69
2024/01/25 03:51:48;;;;;;;41.40;6.80;;;;;;;2.04;100.00;100710.06;5058456;28;20047;-70
2024/01/25 03:54:13;;;;;;;44.45;7.00;;;;;;;1.86;100.00;100692.28;5077145;28;20032;-70
2024/01/25 03:56:39;;;;;;;50.28;7.50;;;;;;;1.99;100.00;100723.78;5058811;28;20399;-69
2024/01/25 03:59:10;;;;;;;41.45;7.72;;;;;;;2.00;100.00;100732.59;5076272;28;20032;-68
2024/01/25 04:01:41;;;;;;;54.15;8.45;;;;;;;1.75;100.00;100707.53;5076592;28;20028;-69
2024/01/25 04:04:08;;;;;;;56.30;8.50;;;;;;;1.94;100.00;100754.41;5075381;28;20063;-70
2024/01/25 04:06:33;;;;;;;48.53;8.55;;;;;;;1.92;100.00;100764.31;5058443;28;20115;-70
2024/01/25 04:08:58;;;;;;;64.60;9.98;;;;;;;1.87;100.00;100780.66;5074667;28;20093;-70
2024/01/25 04:11:24;;;;;;;51.00;9.32;;;;;;;1.83;100.00;100793.38;5074494;28;20036;-71
2024/01/25 04:13:49;;;;;;;53.85;8.90;;;;;;;1.75;100.00;100798.53;5074547;28;20028;-70
2024/01/25 04:16:14;;;;;;;55.28;9.45;;;;;;;1.65;100.00;100801.22;5058142;28;20428;-70
2024/01/25 04:18:41;;;;;;;59.45;9.10;;;;;;;1.70;100.00;100814.06;5074593;28;20064;-69
2024/01/25 04:21:06;;;;;;;65.05;9.70;;;;;;;1.73;100.00;100831.53;5075619;28;20036;-69
2024/01/25 04:23:31;;;;;;;39.83;6.50;;;;;;;1.75;100.00;100835.69;5076120;28;20043;-68
2024/01/25 04:25:57;;;;;;;59.03;9.32;;;;;;;1.72;100.00;100833.31;5076596;28;20024;-69
2024/01/25 04:28:22;;;;;;;58.20;8.45;;;;;;;1.69;100.00;100838.06;5081306;28;20044;-70
2024/01/25 04:30:47;;;;;;;49.10;7.70;;;;;;;1.69;100.00;100852.19;5076655;28;20066;-69
2024/01/25 04:33:13;;;;;;;37.35;6.65;;;;;;;1.69;100.00;100862.81;5059550;28;20490;-69
2024/01/25 04:35:39;;;;;;;45.40;6.70;;;;;;;1.61;100.00;100867.94;5076592;28;20043;-68
2024/01/25 04:38:05;;;;;;;39.22;5.95;;;;;;;1.35;100.00;100855.22;5076338;28;20494;-69
2024/01/25 04:40:31;;;;;;;38.65;6.45;;;;;;;1.52;100.00;100888.16;5075737;28;20033;-69
2024/01/25 04:42:56;;;;;;;27.15;5.05;;;;;;;1.49;100.00;100895.56;5058360;28;20032;-70
2024/01/25 04:45:23;;;;;;;19.10;3.97;;;;;;;1.43;100.00;100912.88;5056077;28;20442;-69
2024/01/25 04:47:48;;;;;;;12.43;2.97;;;;;;;1.56;100.00;100925.88;5074907;28;20123;-69
2024/01/25 04:50:14;;;;;;;8.88;2.58;;;;;;;1.67;100.00;100927.56;5075438;28;20116;-69
2024/01/25 04:52:39;;;;;;;5.97;1.90;;;;;;;1.58;100.00;100937.19;5075046;28;20036;-70
2024/01/25 04:55:05;;;;;;;5.85;1.92;;;;;;;1.58;100.00;100940.66;5058530;28;20032;-70
2024/01/25 04:57:30;;;;;;;3.80;2.00;;;;;;;1.54;100.00;100949.88;5075025;28;20024;-69
2024/01/25 04:59:56;;;;;;;3.50;2.00;;;;;;;1.34;100.00;100930.44;5073717;28;20089;-70
2024/01/25 05:02:21;;;;;;;3.25;2.13;;;;;;;1.32;100.00;100945.63;5074116;28;20175;-69
2024/01/25 05:04:46;;;;;;;4.05;2.15;;;;;;;1.39;100.00;100968.00;5074001;28;20506;-69
2024/01/25 05:07:12;;;;;;;4.15;2.50;;;;;;;1.37;100.00;100974.41;5075097;28;20503;-70
2024/01/25 05:09:37;;;;;;;5.30;2.88;;;;;;;1.36;100.00;100978.03;5075914;28;20111;-70
2024/01/25 05:12:03;;;;;;;4.40;2.25;;;;;;;1.31;100.00;100990.84;5058176;28;20111;-70
2024/01/25 05:14:28;;;;;;;3.95;2.47;;;;;;;1.29;100.00;100991.00;5056409;28;20036;-70
2024/01/25 05:16:54;;;;;;;3.60;2.42;;;;;;;1.35;100.00;100992.25;5075222;28;20063;-70
2024/01/25 05:19:20;;;;;;;2.60;2.40;;;;;;;1.33;100.00;100989.75;5077578;28;20049;-69
2024/01/25 05:21:46;;;;;;;3.08;2.40;;;;;;;1.23;100.00;100996.00;5071852;28;20013;-70
2024/01/25 05:24:13;;;;;;;2.50;2.25;;;;;;;1.12;100.00;101002.22;5071758;28;20501;-70
2024/01/25 05:26:39;;;;;;;2.58;2.20;;;;;;;1.10;100.00;101012.13;5071515;28;20020;-70
2024/01/25 05:29:04;;;;;;;2.67;2.08;;;;;;;1.12;100.00;101018.94;5054981;28;20391;-69
2024/01/25 05:31:30;;;;;;;3.00;2.05;;;;;;;1.18;100.00;101033.50;5073914;28;20029;-70
2024/01/25 05:33:55;;;;;;;3.03;2.72;;;;;;;1.22;100.00;101040.19;5055264;28;20080;-69
2024/01/25 05:36:21;;;;;;;2.60;2.35;;;;;;;1.15;100.00;101047.84;5071777;28;20084;-69
2024/01/25 05:38:47;;;;;;;2.75;2.55;;;;;;;1.07;100.00;101052.13;5072275;28;20032;-69
2024/01/25 05:41:12;;;;;;;2.60;2.40;;;;;;;1.03;100.00;101059.50;5075709;28;20017;-69
2024/01/25 05:43:38;;;;;;;3.03;2.40;;;;;;;1.03;100.00;101062.16;5072926;28;20045;-69
2024/01/25 05:46:03;;;;;;;3.20;2.50;;;;;;;0.79;100.00;101051.81;5057644;28;20032;-69
2024/01/25 05:48:29;;;;;;;5.13;2.47;;;;;;;1.01;100.00;101082.63;5073361;28;20479;-69
2024/01/25 05:50:54;;;;;;;2.60;2.40;;;;;;;1.00;100.00;101093.38;5073214;28;20060;-69
2024/01/25 05:53:21;;;;;;;3.83;2.60;;;;;;;1.02;100.00;101096.72;5058815;28;20788;-69
2024/01/25 05:55:46;;;;;;;2.78;2.30;;;;;;;0.85;100.00;101101.63;5077308;28;20457;-70
2024/01/25 05:58:12;;;;;;;3.65;2.15;;;;;;;0.81;100.00;101113.47;5073906;28;20144;-69
2024/01/25 06:00:37;;;;;;;2.58;2.28;;;;;;;0.86;100.00;101121.00;5056833;28;20035;-70
2024/01/25 06:03:02;;;;;;;2.63;2.42;;;;;;;0.65;100.00;101111.25;5074880;28;20039;-70
2024/01/25 06:05:28;;;;;;;4.18;2.47;;;;;;;0.80;100.00;101140.94;5074070;28;20041;-70
2024/01/25 06:07:53;;;;;;;3.95;2.50;;;;;;;0.78;100.00;101140.22;5070900;28;20092;-70
2024/01/25 06:10:20;;;;;;;3.22;2.40;;;;;;;0.78;100.00;101153.44;5089615;28;20063;-69
2024/01/25 06:12:45;;;;;;;4.28;2.38;;;;;;;0.81;100.00;101162.97;5086675;28;20024;-70
2024/01/25 06:15:11;;;;;;;3.58;2.30;;;;;;;0.76;100.00;101162.47;5077596;28;20063;-69
2024/01/25 06:17:36;;;;;;;3.35;2.42;;;;;;;0.56;100.00;101149.06;5074076;28;20031;-70
2024/01/25 06:20:02;;;;;;;4.00;2.55;;;;;;;0.73;100.00;101187.44;5072335;28;20029;-69
2024/01/25 06:22:28;;;;;;;2.53;2.25;;;;;;;0.67;100.00;101183.47;5054675;28;20403;-69
2024/01/25 06:24:53;;;;;;;2.95;2.38;;;;;;;0.68;100.00;101192.25;5071443;28;20028;-69
2024/01/25 06:27:19;;;;;;;4.75;2.47;;;;;;;0.65;100.00;101197.81;5056345;28;20410;-70
2024/01/25 06:29:44;;;;;;;4.00;2.72;;;;;;;0.64;100.00;101206.72;5056443;28;20077;-70
2024/01/25 06:32:10;;;;;;;2.63;2.40;;;;;;;0.59;100.00;101208.88;5072810;28;20032;-70
2024/01/25 06:34:35;;;;;;;2.95;2.60;;;;;;;0.59;100.00;101209.72;5072492;28;20031;-69
2024/01/25 06:37:01;;;;;;;2.50;2.30;;;;;;;0.56;100.00;101206.50;5055729;28;20057;-69
2024/01/25 06:39:26;;;;;;;5.10;2.30;;;;;;;0.50;100.00;101220.22;5054945;28;20123;-68
2024/01/25 06:41:51;;;;;;;3.25;2.75;;;;;;;0.46;100.00;101225.78;5088676;28;20028;-69
2024/01/25 06:44:17;;;;;;;2.90;2.53;;;;;;;0.46;100.00;101235.50;5071569;28;20035;-70
2024/01/25 06:46:42;;;;;;;2.85;2.40;;;;;;;0.40;100.00;101234.22;5072405;28;20037;-69
2024/01/25 06:49:08;;;;;;;3.47;2.45;;;;;;;0.32;100.00;101230.50;5088227;28;20062;-70
2024/01/25 06:51:33;;;;;;;4.47;2.92;;;;;;;0.30;100.00;101248.28;5074005;28;20044;-70
2024/01/25 06:53:59;;;;;;;4.07;3.33;;;;;;;0.27;100.00;101249.41;5072981;28;20040;-70
2024/01/25 06:56:24;;;;;;;4.13;3.10;;;;;;;0.25;100.00;101250.47;5072677;28;20487;-69
2024/01/25 06:58:50;;;;;;;3.83;2.60;;;;;;;0.20;100.00;101256.13;5072733;28;20036;-69
2024/01/25 07:01:22;;;;;;;4.35;2.80;;;;;;;0.21;100.00;101271.03;5088111;28;20448;-69
2024/01/25 07:03:48;;;;;;;3.33;2.30;;;;;;;0.22;100.00;101291.25;5054991;28;20506;-69
2024/01/25 07:06:13;;;;;;;3.45;2.10;;;;;;;0.28;100.00;101298.72;5084458;28;20033;-67
2024/01/25 07:08:38;;;;;;;2.47;1.80;;;;;;;0.34;100.00;101313.28;5085948;28;20388;-70
2024/01/25 07:11:04;;;;;;;2.38;2.17;;;;;;;0.34;100.00;101318.56;5063343;28;20028;-69
2024/01/25 07:13:29;;;;;;;2.40;2.05;;;;;;;0.20;100.00;101295.84;5058910;28;20055;-69
2024/01/25 07:15:54;;;;;;;1.77;1.67;;;;;;;0.43;100.00;101329.28;5075400;28;20032;-68
2024/01/25 07:18:21;;;;;;;2.45;1.80;;;;;;;0.45;100.00;101335.28;5072574;28;20056;-69
2024/01/25 07:20:47;;;;;;;2.15;1.88;;;;;;;0.45;100.00;101332.63;5072681;28;20028;-68
2024/01/25 07:23:12;;;;;;;10.98;2.10;;;;;;;0.43;100.00;101334.56;5071464;28;20029;-69
2024/01/25 07:25:38;;;;;;;2.28;2.03;;;;;;;0.40;100.00;101348.06;5060152;28;20032;-67
2024/01/25 07:28:03;;;;;;;1.90;1.70;;;;;;;0.37;100.00;101343.00;5072556;28;20543;-69
2024/01/25 07:30:29;;;;;;;1.90;1.70;;;;;;;0.32;100.00;101341.66;5073472;28;20024;-69
2024/01/25 07:32:54;;;;;;;2.30;1.90;;;;;;;0.32;100.00;101354.91;5071492;28;20477;-69
2024/01/25 07:35:20;;;;;;;2.75;1.85;;;;;;;0.30;100.00;101355.03;5072448;28;20029;-70
2024/01/25 07:37:45;;;;;;;2.65;1.90;;;;;;;0.26;100.00;101358.00;5089837;28;20422;-69
2024/01/25 07:40:11;;;;;;;5.80;2.83;;;;;;;0.08;100.00;101345.25;5071956;28;20044;-69
2024/01/25 07:42:36;;;;;;;4.57;2.03;;;;;;;0.22;100.00;101373.28;5072607;28;20037;-69
2024/01/25 07:45:03;;;;;;;5.28;2.20;;;;;;;0.29;100.00;101373.66;5071525;28;20056;-69
2024/01/25 07:47:29;;;;;;;3.85;1.90;;;;;;;0.35;100.00;101378.47;5052718;28;20034;-69
2024/01/25 07:49:55;;;;;;;5.90;1.95;;;;;;;0.46;100.00;101391.72;5072448;28;20040;-69
2024/01/25 07:52:20;;;;;;;6.22;1.95;;;;;;;0.49;100.00;101386.19;5090885;28;20135;-69
2024/01/25 07:54:45;;;;;;;7.57;2.13;;;;;;;0.46;100.00;101373.19;5091656;28;20036;-68
2024/01/25 07:57:11;;;;;;;3.55;2.00;;;;;;;0.55;100.00;101398.13;5060524;28;20028;-69
2024/01/25 07:59:37;;;;;;;4.38;2.03;;;;;;;0.52;100.00;101401.84;5076704;28;20142;-69
2024/01/25 08:02:02;;;;;;;3.95;2.25;;;;;;;0.50;100.00;101408.22;5093576;28;20176;-69
2024/01/25 08:04:28;;;;;;;5.47;1.80;;;;;;;0.53;100.00;101413.25;5105396;28;20032;-69
2024/01/25 08:06:53;;;;;;;4.07;1.80;;;;;;;0.58;100.00;101433.16;5075674;28;20122;-70
2024/01/25 08:09:19;;;;;;;4.30;2.00;;;;;;;0.57;100.00;101425.34;5078606;28;20063;-67
2024/01/25 08:11:46;;;;;;;3.38;1.98;;;;;;;0.61;100.00;101438.19;5095192;28;20028;-68
2024/01/25 08:14:11;;;;;;;5.50;1.90;;;;;;;0.58;100.00;101433.16;5093275;28;20529;-69
2024/01/25 08:16:37;;;;;;;7.13;2.03;;;;;;;0.60;100.00;101448.94;5077312;28;20048;-69
2024/01/25 08:19:03;;;;;;;5.32;1.88;;;;;;;0.65;100.00;101449.41;5076367;28;20032;-69
2024/01/25 08:21:28;;;;;;;6.07;2.10;;;;;;;0.57;100.00;101435.94;5076776;28;20047;-69
2024/01/25 08:23:55;;;;;;;9.52;2.35;;;;;;;0.65;100.00;101460.00;5079303;28;20652;-69
2024/01/25 08:26:20;;;;;;;4.05;2.17;;;;;;;0.67;100.00;101458.91;5059892;28;20063;-69
2024/01/25 08:29:04;;;;;;;6.20;2.00;;;;;;;0.17;100.00;101370.16;5093149;28;20060;-69
2024/01/25 08:31:30;;;;;;;5.60;2.13;;;;;;;0.73;100.00;101457.59;5074678;28;20032;-69
2024/01/25 08:33:55;;;;;;;6.57;1.95;;;;;;;0.78;100.00;101462.53;5091839;28;20056;-69
2024/01/25 08:36:22;;;;;;;11.98;2.60;;;;;;;0.83;100.00;101458.56;5074394;28;20102;-69
2024/01/25 08:38:48;;;;;;;11.88;2.70;;;;;;;0.68;100.00;101438.56;5076967;28;20166;-69
2024/01/25 08:41:15;;;;;;;6.05;2.25;;;;;;;0.88;100.00;101469.63;5075103;28;20035;-70
2024/01/25 08:43:41;;;;;;;18.38;3.00;;;;;;;0.93;100.00;101459.53;5073936;28;20032;-69
2024/01/25 08:46:06;;;;;;;13.10;3.00;;;;;;;0.96;100.00;101468.19;5074389;28;20584;-69
2024/01/25 08:48:31;;;;;;;10.70;2.90;;;;;;;0.84;100.00;101441.72;5057780;28;20521;-69
2024/01/25 08:50:57;;;;;;;18.42;3.67;;;;;;;1.09;100.00;101479.50;5056550;28;20594;-69
2024/01/25 08:53:26;;;;;;;14.88;3.60;;;;;;;1.16;100.00;101488.69;5057146;28;20096;-68
2024/01/25 08:55:54;;;;;;;12.93;3.22;;;;;;;1.03;100.00;101464.13;5079939;28;20096;-70
2024/01/25 08:58:19;;;;;;;11.40;3.28;;;;;;;1.17;100.00;101493.03;5081015;28;20037;-69
2024/01/25 09:00:45;;;;;;;15.82;3.45;;;;;;;1.16;100.00;101494.84;5060962;28;20021;-69
2024/01/25 09:03:12;;;;;;;16.55;3.15;;;;;;;1.17;100.00;101512.41;5059590;28;20033;-69
2024/01/25 09:05:40;;;;;;;13.35;3.42;;;;;;;1.17;100.00;101503.63;5091057;28;20102;-69
2024/01/25 09:08:07;;;;;;;13.00;3.20;;;;;;;1.09;100.00;101487.47;5074963;28;20029;-69
2024/01/25 09:10:32;;;;;;;14.48;3.35;;;;;;;1.26;100.00;101510.00;5074002;28;20028;-70
2024/01/25 09:12:58;;;;;;;13.43;3.10;;;;;;;1.23;100.00;101513.75;5074770;28;20039;-69
2024/01/25 09:15:23;;;;;;;19.40;3.40;;;;;;;1.28;100.00;101516.88;5072575;28;20030;-68
2024/01/25 09:17:49;;;;;;;14.75;3.45;;;;;;;1.32;100.00;101513.00;5072672;28;20113;-68
2024/01/25 09:20:15;;;;;;;12.93;3.10;;;;;;;1.16;100.00;101480.75;5076940;28;20020;-69
2024/01/25 09:22:40;;;;;;;12.88;3.20;;;;;;;1.41;100.00;101517.56;5074831;28;20031;-69
2024/01/25 09:25:07;;;;;;;16.50;3.15;;;;;;;1.44;100.00;101516.50;5073222;28;20037;-69
2024/01/25 09:27:33;;;;;;;15.63;3.50;;;;;;;1.46;100.00;101516.34;5072760;28;20070;-70
2024/01/25 09:29:58;;;;;;;15.70;3.42;;;;;;;1.50;100.00;101528.44;5073076;28;20040;-68
2024/01/25 09:32:24;;;;;;;13.98;3.13;;;;;;;1.52;100.00;101529.13;5059505;28;20033;-70
2024/01/25 09:34:49;;;;;;;16.48;3.13;;;;;;;1.59;100.00;101538.28;5073984;28;20024;-68
2024/01/25 09:37:15;;;;;;;17.83;3.33;;;;;;;1.54;100.00;101517.44;5074419;28;20405;-69
2024/01/25 09:39:40;;;;;;;13.77;3.15;;;;;;;1.65;100.00;101541.28;5078377;28;20058;-69
2024/01/25 09:42:07;;;;;;;17.27;3.30;;;;;;;1.68;100.00;101549.97;5073780;28;20063;-69
2024/01/25 09:44:32;;;;;;;15.80;3.55;;;;;;;1.69;100.00;101551.66;5058917;28;20028;-69
2024/01/25 09:46:58;;;;;;;14.88;3.13;;;;;;;1.72;100.00;101567.31;5076386;28;20082;-69
2024/01/25 09:49:23;;;;;;;11.60;3.15;;;;;;;1.76;100.00;101574.09;5081520;28;20019;-69
2024/01/25 09:51:51;;;;;;;14.38;3.40;;;;;;;1.82;100.00;101569.16;5064749;28;20025;-68
2024/01/25 09:54:16;;;;;;;17.25;3.67;;;;;;;1.90;100.00;101575.63;5082869;28;20017;-69
2024/01/25 09:56:42;;;;;;;16.70;3.35;;;;;;;1.95;100.00;101579.59;5073349;28;20086;-69
2024/01/25 09:59:08;;;;;;;13.73;3.22;;;;;;;2.01;100.00;101578.25;5072558;28;20043;-69
2024/01/25 10:01:34;;;;;;;15.80;3.60;;;;;;;2.05;100.00;101574.38;5073185;28;20601;-70
2024/01/25 10:04:00;;;;;;;18.35;3.53;;;;;;;2.07;100.00;101575.09;5071826;28;20032;-69
2024/01/25 10:06:25;;;;;;;12.82;3.35;;;;;;;2.10;100.00;101588.13;5089121;28;20028;-70
2024/01/25 10:08:52;;;;;;;16.08;3.03;;;;;;;1.92;100.00;101555.97;5074826;28;20452;-69
2024/01/25 10:11:18;;;;;;;16.90;3.50;;;;;;;1.98;100.00;101558.09;5073518;28;20024;-69
2024/01/25 10:13:46;;;;;;;14.43;3.65;;;;;;;2.24;100.00;101595.81;5056398;28;20072;-68
2024/01/25 10:16:12;;;;;;;13.48;3.20;;;;;;;2.26;100.00;101585.91;5089195;28;20066;-68
2024/01/25 10:18:41;;;;;;;19.23;3.97;;;;;;;2.37;100.00;101598.31;5073390;28;20040;-69
2024/01/25 10:21:08;;;;;;;14.88;3.42;;;;;;;2.40;100.00;101594.56;5073540;28;20338;-69
2024/01/25 10:23:33;;;;;;;16.25;3.50;;;;;;;2.27;100.00;101569.00;5054851;28;20033;-69
2024/01/25 10:25:58;;;;;;;18.50;3.55;;;;;;;2.46;100.00;101596.72;5071559;28;20045;-69
2024/01/25 10:28:28;;;;;;;19.52;3.38;;;;;;;2.37;100.00;101592.16;5073747;28;20028;-69
2024/01/25 10:30:57;;;;;;;12.93;3.45;;;;;;;2.47;100.00;101609.00;5056712;28;20033;-69
2024/01/25 10:33:25;;;;;;;20.92;4.20;;;;;;;2.49;100.00;101612.41;5073835;28;20054;-69
2024/01/25 10:35:55;;;;;;;12.32;3.95;;;;;;;2.56;100.00;101616.22;5072935;28;20067;-69
2024/01/25 10:38:21;;;;;;;17.35;4.43;;;;;;;2.62;100.00;101618.38;5074639;28;20066;-69
2024/01/25 10:40:47;;;;;;;17.90;4.00;;;;;;;2.67;100.00;101616.16;5089692;28;20025;-69
2024/01/25 10:43:13;;;;;;;15.65;4.15;;;;;;;2.61;100.00;101597.25;5089047;28;20064;-68
2024/01/25 10:45:40;;;;;;;19.92;4.22;;;;;;;2.53;100.00;101579.28;5067726;28;20090;-70
2024/01/25 10:48:07;;;;;;;17.60;3.13;;;;;;;2.77;100.00;101613.59;5089500;28;20021;-69
2024/01/25 10:50:32;;;;;;;19.02;3.08;;;;;;;2.73;100.00;101618.31;5057383;28;20024;-70
2024/01/25 10:52:59;;;;;;;16.45;3.22;;;;;;;2.49;100.00;101583.19;5074677;28;20031;-69
2024/01/25 10:55:25;;;;;;;18.23;3.90;;;;;;;2.68;100.00;101615.22;5074195;28;20483;-69
2024/01/25 10:57:52;;;;;;;15.65;3.55;;;;;;;2.77;100.00;101621.56;5072697;28;20041;-68
2024/01/25 11:00:18;;;;;;;25.02;6.28;;;;;;;2.89;100.00;101638.31;5073337;28;20395;-69
2024/01/25 11:02:44;;;;;;;20.58;3.85;;;;;;;2.85;100.00;101615.59;5072132;28;20033;-70
2024/01/25 11:05:13;;;;;;;21.10;3.70;;;;;;;2.99;100.00;101637.41;5072076;28;20039;-69
2024/01/25 11:07:46;;;;;;;18.50;4.40;;;;;;;3.00;100.00;101635.59;5072505;28;20027;-69
2024/01/25 11:10:23;;;;;;;13.65;3.22;;;;;;;3.04;100.00;101651.13;5072559;28;20028;-70
2024/01/25 11:12:55;;;;;;;19.65;4.18;;;;;;;2.90;100.00;101616.91;5070990;28;20103;-69